createdAt,value
2023-05-06T00:00:10.583Z,269.30
2023-05-06T00:01:10.553Z,256.70
2023-05-06T00:02:10.521Z,264.20
2023-05-06T00:03:10.568Z,259.80
2023-05-06T00:04:10.538Z,251.80
2023-05-06T00:05:10.738Z,266.10
2023-05-06T00:06:10.473Z,254.20
2023-05-06T00:07:10.488Z,261.20
2023-05-06T00:08:10.465Z,253.60
2023-05-06T00:09:10.425Z,276.30
2023-05-06T00:10:10.456Z,249.30
2023-05-06T00:11:10.398Z,267.90
2023-05-06T00:12:10.397Z,250.30
2023-05-06T00:13:10.382Z,265.20
2023-05-06T00:14:10.361Z,258.80
2023-05-06T00:15:10.545Z,281.30
2023-05-06T00:16:10.357Z,270.40
2023-05-06T00:17:10.323Z,253.30
2023-05-06T00:18:10.386Z,267.10
2023-05-06T00:19:10.283Z,243.40
2023-05-06T00:20:10.279Z,259.70
2023-05-06T00:21:10.290Z,263.90
2023-05-06T00:22:10.259Z,260.50
2023-05-06T00:23:10.267Z,277.40
2023-05-06T00:24:10.261Z,272.10
2023-05-06T00:25:10.506Z,285.20
2023-05-06T00:26:10.218Z,297.90
2023-05-06T00:27:10.165Z,277.50
2023-05-06T00:28:10.167Z,257.20
2023-05-06T00:29:10.148Z,271.00
2023-05-06T00:30:10.152Z,277.80
2023-05-06T00:31:10.149Z,265.80
2023-05-06T00:32:10.129Z,270.40
2023-05-06T00:33:10.193Z,271.70
2023-05-06T00:34:10.129Z,294.40
2023-05-06T00:35:10.464Z,268.20
2023-05-06T00:36:10.047Z,274.40
2023-05-06T00:37:10.046Z,286.40
2023-05-06T00:38:10.020Z,273.50
2023-05-06T00:39:10.040Z,274.00
2023-05-06T00:40:10.018Z,286.60
2023-05-06T00:41:10.009Z,284.10
2023-05-06T00:42:09.988Z,263.10
2023-05-06T00:43:09.959Z,266.60
2023-05-06T00:44:09.949Z,250.30
2023-05-06T00:45:10.221Z,239.70
2023-05-06T00:46:09.976Z,242.60
2023-05-06T00:47:09.985Z,263.40
2023-05-06T00:48:09.956Z,306.70
2023-05-06T00:49:09.940Z,309.90
2023-05-06T00:50:09.886Z,301.50
2023-05-06T00:51:09.853Z,326.70
2023-05-06T00:52:09.844Z,299.80
2023-05-06T00:53:09.820Z,316.10
2023-05-06T00:54:09.859Z,315.30
2023-05-06T00:55:10.020Z,291.90
2023-05-06T00:56:09.809Z,269.10
2023-05-06T00:57:09.759Z,271.60
2023-05-06T00:58:09.806Z,304.70
2023-05-06T00:59:09.747Z,256.50
2023-05-06T01:00:09.723Z,296.60
2023-05-06T01:01:09.757Z,257.00
2023-05-06T01:02:09.729Z,254.10
2023-05-06T01:03:09.900Z,232.70
2023-05-06T01:04:09.704Z,264.60
2023-05-06T01:05:09.885Z,248.90
2023-05-06T01:06:09.672Z,284.80
2023-05-06T01:07:09.626Z,278.40
2023-05-06T01:08:09.648Z,275.00
2023-05-06T01:09:09.622Z,285.90
2023-05-06T01:10:09.605Z,265.30
2023-05-06T01:11:09.574Z,268.90
2023-05-06T01:12:09.606Z,252.80
2023-05-06T01:13:09.619Z,241.90
2023-05-06T01:14:09.541Z,226.40
2023-05-06T01:15:09.781Z,296.80
2023-05-06T01:16:09.547Z,250.10
2023-05-06T01:17:09.695Z,263.60
2023-05-06T01:18:09.550Z,244.50
2023-05-06T01:19:09.486Z,234.50
2023-05-06T01:20:09.460Z,230.70
2023-05-06T01:21:09.493Z,250.90
2023-05-06T01:22:09.463Z,256.10
2023-05-06T01:23:09.425Z,234.60
2023-05-06T01:24:09.409Z,261.90
2023-05-06T01:25:09.725Z,274.40
2023-05-06T01:26:09.402Z,265.80
2023-05-06T01:27:09.374Z,271.00
2023-05-06T01:28:09.351Z,286.80
2023-05-06T01:29:09.332Z,266.80
2023-05-06T01:30:09.335Z,250.60
2023-05-06T01:31:09.398Z,252.90
2023-05-06T01:32:09.314Z,244.60
2023-05-06T01:33:09.292Z,239.60
2023-05-06T01:34:09.396Z,252.30
2023-05-06T01:35:09.405Z,270.80
2023-05-06T01:36:09.261Z,288.60
2023-05-06T01:37:09.208Z,265.40
2023-05-06T01:38:09.220Z,244.20
2023-05-06T01:39:09.217Z,244.10
2023-05-06T01:40:09.211Z,318.70
2023-05-06T01:41:09.194Z,332.40
2023-05-06T01:42:09.163Z,335.40
2023-05-06T01:43:09.143Z,285.50
2023-05-06T01:44:09.173Z,307.40
2023-05-06T01:45:09.321Z,315.00
2023-05-06T01:46:09.161Z,296.30
2023-05-06T01:47:09.090Z,296.20
2023-05-06T01:48:09.144Z,279.30
2023-05-06T01:49:09.083Z,304.90
2023-05-06T01:50:09.043Z,284.50
2023-05-06T01:51:09.041Z,310.50
2023-05-06T01:52:09.029Z,290.50
2023-05-06T01:53:09.032Z,295.70
2023-05-06T01:54:09.016Z,275.30
2023-05-06T01:55:09.133Z,291.40
2023-05-06T01:56:08.975Z,309.20
2023-05-06T01:57:08.947Z,263.80
2023-05-06T01:58:08.960Z,310.00
2023-05-06T01:59:08.940Z,295.50
2023-05-06T02:00:08.909Z,317.30
2023-05-06T02:01:08.900Z,272.70
2023-05-06T02:02:09.196Z,284.00
2023-05-06T02:03:09.024Z,301.60
2023-05-06T02:04:08.943Z,281.90
2023-05-06T02:05:09.052Z,281.10
2023-05-06T02:06:08.834Z,290.50
2023-05-06T02:07:08.815Z,287.80
2023-05-06T02:08:08.899Z,269.00
2023-05-06T02:09:08.778Z,269.50
2023-05-06T02:10:08.788Z,302.30
2023-05-06T02:11:08.759Z,295.30
2023-05-06T02:12:08.762Z,282.70
2023-05-06T02:13:08.799Z,269.90
2023-05-06T02:14:08.724Z,323.30
2023-05-06T02:15:08.811Z,331.50
2023-05-06T02:16:08.780Z,287.60
2023-05-06T02:17:08.680Z,301.60
2023-05-06T02:18:08.689Z,359.80
2023-05-06T02:19:08.643Z,343.30
2023-05-06T02:20:08.646Z,323.90
2023-05-06T02:21:08.609Z,336.00
2023-05-06T02:22:08.695Z,346.40
2023-05-06T02:23:08.612Z,346.10
2023-05-06T02:24:08.578Z,361.80
2023-05-06T02:25:08.780Z,342.20
2023-05-06T02:26:08.563Z,362.10
2023-05-06T02:27:08.641Z,357.10
2023-05-06T02:28:08.530Z,336.10
2023-05-06T02:29:08.520Z,392.60
2023-05-06T02:30:08.509Z,383.10
2023-05-06T02:31:08.535Z,334.90
2023-05-06T02:32:08.500Z,350.10
2023-05-06T02:33:08.485Z,375.40
2023-05-06T02:34:08.455Z,366.60
2023-05-06T02:35:08.696Z,336.00
2023-05-06T02:36:08.436Z,345.80
2023-05-06T02:37:08.408Z,366.50
2023-05-06T02:38:08.392Z,378.20
2023-05-06T02:39:08.373Z,337.70
2023-05-06T02:40:08.394Z,408.70
2023-05-06T02:41:08.373Z,381.00
2023-05-06T02:42:08.328Z,359.50
2023-05-06T02:43:08.326Z,360.50
2023-05-06T02:44:08.312Z,341.90
2023-05-06T02:45:08.431Z,370.30
2023-05-06T02:46:08.328Z,340.30
2023-05-06T02:47:08.393Z,324.30
2023-05-06T02:48:08.276Z,343.50
2023-05-06T02:49:08.246Z,303.30
2023-05-06T02:50:08.252Z,330.10
2023-05-06T02:51:08.199Z,390.00
2023-05-06T02:52:08.234Z,416.70
2023-05-06T02:53:08.201Z,305.80
2023-05-06T02:54:08.183Z,318.90
2023-05-06T02:55:08.383Z,366.40
2023-05-06T02:56:08.172Z,316.90
2023-05-06T02:57:08.133Z,334.50
2023-05-06T02:58:08.123Z,346.80
2023-05-06T02:59:08.130Z,325.50
2023-05-06T03:00:08.123Z,390.10
2023-05-06T03:01:08.151Z,356.30
2023-05-06T03:02:08.058Z,340.10
2023-05-06T03:03:08.098Z,357.50
2023-05-06T03:04:08.075Z,366.50
2023-05-06T03:05:08.168Z,401.30
2023-05-06T03:06:08.022Z,380.10
2023-05-06T03:07:07.989Z,366.50
2023-05-06T03:08:07.987Z,341.70
2023-05-06T03:09:07.978Z,334.10
2023-05-06T03:10:07.968Z,359.40
2023-05-06T03:11:08.361Z,348.90
2023-05-06T03:12:07.916Z,389.20
2023-05-06T03:13:07.963Z,353.60
2023-05-06T03:14:07.948Z,385.00
2023-05-06T03:15:07.970Z,343.60
2023-05-06T03:16:07.857Z,349.30
2023-05-06T03:17:07.912Z,360.40
2023-05-06T03:18:07.926Z,377.90
2023-05-06T03:19:07.838Z,371.40
2023-05-06T03:20:07.812Z,340.20
2023-05-06T03:21:07.856Z,341.70
2023-05-06T03:22:07.805Z,363.80
2023-05-06T03:23:07.790Z,393.50
2023-05-06T03:24:07.776Z,380.20
2023-05-06T03:25:08.129Z,360.20
2023-05-06T03:26:07.740Z,448.40
2023-05-06T03:27:07.729Z,354.40
2023-05-06T03:28:07.708Z,344.60
2023-05-06T03:29:07.676Z,416.90
2023-05-06T03:30:07.668Z,372.00
2023-05-06T03:31:07.700Z,337.20
2023-05-06T03:32:07.673Z,364.60
2023-05-06T03:34:07.661Z,363.90
2023-05-06T03:35:07.744Z,324.70
2023-05-06T03:36:07.607Z,364.00
2023-05-06T03:37:07.653Z,354.80
2023-05-06T03:38:07.569Z,402.90
2023-05-06T03:39:07.561Z,378.70
2023-05-06T03:40:07.562Z,321.60
2023-05-06T03:41:07.515Z,279.70
2023-05-06T03:42:09.196Z,339.80
2023-05-06T03:43:07.522Z,302.00
2023-05-06T03:44:07.502Z,302.80
2023-05-06T03:45:07.548Z,302.00
2023-05-06T03:46:07.551Z,333.30
2023-05-06T03:47:07.442Z,333.20
2023-05-06T03:48:07.485Z,391.80
2023-05-06T03:49:07.434Z,343.80
2023-05-06T03:50:07.402Z,327.50
2023-05-06T03:51:07.400Z,307.40
2023-05-06T03:52:07.377Z,342.20
2023-05-06T03:53:07.368Z,339.90
2023-05-06T03:54:07.337Z,326.80
2023-05-06T03:55:07.464Z,291.30
2023-05-06T03:56:07.329Z,287.80
2023-05-06T03:57:07.330Z,269.60
2023-05-06T03:58:07.285Z,278.70
2023-05-06T03:59:07.292Z,309.50
2023-05-06T04:00:07.278Z,294.60
2023-05-06T04:01:07.250Z,306.20
2023-05-06T04:02:07.332Z,309.70
2023-05-06T04:03:07.289Z,292.30
2023-05-06T04:04:07.252Z,337.60
2023-05-06T04:05:07.313Z,325.10
2023-05-06T04:06:07.178Z,309.90
2023-05-06T04:07:07.178Z,347.70
2023-05-06T04:08:07.144Z,287.10
2023-05-06T04:09:07.160Z,374.90
2023-05-06T04:10:07.141Z,301.80
2023-05-06T04:11:07.113Z,301.40
2023-05-06T04:12:07.113Z,275.40
2023-05-06T04:13:07.133Z,313.00
2023-05-06T04:14:07.073Z,271.50
2023-05-06T04:15:07.100Z,271.00
2023-05-06T04:16:07.291Z,337.70
2023-05-06T04:17:07.798Z,263.00
2023-05-06T04:18:07.070Z,283.10
2023-05-06T04:19:07.049Z,270.90
2023-05-06T04:20:06.985Z,293.10
2023-05-06T04:21:06.971Z,289.60
2023-05-06T04:22:06.940Z,289.70
2023-05-06T04:23:06.981Z,275.00
2023-05-06T04:24:06.965Z,275.30
2023-05-06T04:25:06.912Z,288.70
2023-05-06T04:26:06.895Z,262.10
2023-05-06T04:27:06.915Z,292.40
2023-05-06T04:28:06.892Z,284.90
2023-05-06T04:29:06.854Z,289.00
2023-05-06T04:30:06.854Z,261.90
2023-05-06T04:31:06.839Z,282.40
2023-05-06T04:32:06.905Z,301.70
2023-05-06T04:33:06.869Z,303.50
2023-05-06T04:34:06.803Z,260.80
2023-05-06T04:35:06.792Z,313.80
2023-05-06T04:36:06.755Z,253.80
2023-05-06T04:37:06.774Z,295.80
2023-05-06T04:38:06.749Z,269.40
2023-05-06T04:39:06.782Z,304.30
2023-05-06T04:40:06.754Z,291.90
2023-05-06T04:41:06.696Z,292.80
2023-05-06T04:42:06.713Z,303.50
2023-05-06T04:43:06.668Z,296.30
2023-05-06T04:44:06.659Z,248.10
2023-05-06T04:45:06.712Z,262.20
2023-05-06T04:46:06.655Z,335.60
2023-05-06T04:47:06.637Z,285.30
2023-05-06T04:48:06.606Z,251.70
2023-05-06T04:49:06.578Z,279.80
2023-05-06T04:50:06.584Z,269.50
2023-05-06T04:51:06.600Z,247.90
2023-05-06T04:52:06.547Z,232.20
2023-05-06T04:53:06.531Z,307.20
2023-05-06T04:54:06.510Z,234.60
2023-05-06T04:55:06.597Z,223.90
2023-05-06T04:56:06.498Z,262.70
2023-05-06T04:57:06.490Z,230.90
2023-05-06T04:58:06.454Z,307.40
2023-05-06T04:59:06.455Z,234.00
2023-05-06T05:00:06.463Z,244.10
2023-05-06T05:01:06.453Z,266.80
2023-05-06T05:02:06.481Z,227.80
2023-05-06T05:03:06.469Z,253.40
2023-05-06T05:04:06.393Z,244.00
2023-05-06T05:05:06.384Z,237.80
2023-05-06T05:06:06.380Z,205.80
2023-05-06T05:07:06.341Z,196.60
2023-05-06T05:08:06.315Z,194.30
2023-05-06T05:09:06.312Z,201.10
2023-05-06T05:10:06.329Z,184.20
2023-05-06T05:11:06.284Z,190.40
2023-05-06T05:12:06.265Z,189.80
2023-05-06T05:13:06.397Z,189.20
2023-05-06T05:14:06.253Z,191.10
2023-05-06T05:15:06.260Z,189.80
2023-05-06T05:16:06.215Z,167.70
2023-05-06T05:17:06.222Z,234.00
2023-05-06T05:18:06.314Z,202.10
2023-05-06T05:19:08.334Z,181.40
2023-05-06T05:20:06.184Z,184.90
2023-05-06T05:21:06.160Z,218.60
2023-05-06T05:22:06.171Z,202.40
2023-05-06T05:23:06.158Z,175.20
2023-05-06T05:24:06.158Z,187.10
2023-05-06T05:25:07.827Z,175.50
2023-05-06T05:26:06.078Z,174.30
2023-05-06T05:27:06.114Z,198.10
2023-05-06T05:28:06.099Z,168.60
2023-05-06T05:29:06.127Z,179.30
2023-05-06T05:30:06.024Z,180.60
2023-05-06T05:31:06.912Z,174.40
2023-05-06T05:32:05.988Z,182.10
2023-05-06T05:33:06.072Z,177.60
2023-05-06T05:34:05.955Z,163.60
2023-05-06T05:35:05.979Z,157.20
2023-05-06T05:36:05.937Z,248.10
2023-05-06T05:37:05.934Z,160.80
2023-05-06T05:38:05.916Z,142.00
2023-05-06T05:39:05.915Z,154.40
2023-05-06T05:40:05.884Z,135.20
2023-05-06T05:41:05.891Z,137.10
2023-05-06T05:42:05.879Z,133.60
2023-05-06T05:43:05.866Z,112.60
2023-05-06T05:44:05.862Z,127.60
2023-05-06T05:45:05.825Z,144.20
2023-05-06T05:46:05.855Z,119.00
2023-05-06T05:47:05.803Z,118.30
2023-05-06T05:48:05.819Z,107.70
2023-05-06T05:49:05.764Z,116.70
2023-05-06T05:50:05.766Z,120.30
2023-05-06T05:51:05.759Z,136.50
2023-05-06T05:52:05.734Z,157.80
2023-05-06T05:53:05.741Z,113.10
2023-05-06T05:54:05.707Z,114.60
2023-05-06T05:55:05.703Z,124.40
2023-05-06T05:56:05.673Z,118.30
2023-05-06T05:57:05.691Z,115.50
2023-05-06T05:58:05.669Z,125.30
2023-05-06T05:59:05.640Z,136.10
2023-05-06T06:00:05.608Z,120.20
2023-05-06T06:01:05.607Z,120.10
2023-05-06T06:02:05.626Z,141.70
2023-05-06T06:03:05.643Z,319.50
2023-05-06T06:04:05.758Z,328.10
2023-05-06T06:05:05.552Z,173.50
2023-05-06T06:06:05.594Z,194.40
2023-05-06T06:07:05.544Z,145.80
2023-05-06T06:08:05.502Z,147.50
2023-05-06T06:09:05.594Z,134.40
2023-05-06T06:10:05.632Z,160.20
2023-05-06T06:11:05.493Z,157.00
2023-05-06T06:12:05.453Z,175.60
2023-05-06T06:13:05.449Z,157.90
2023-05-06T06:14:05.466Z,151.60
2023-05-06T06:15:05.457Z,126.90
2023-05-06T06:16:05.469Z,139.80
2023-05-06T06:17:05.391Z,149.20
2023-05-06T06:18:05.421Z,146.20
2023-05-06T06:19:05.391Z,142.80
2023-05-06T06:20:05.385Z,135.50
2023-05-06T06:21:05.363Z,139.40
2023-05-06T06:22:05.514Z,142.30
2023-05-06T06:23:05.303Z,139.50
2023-05-06T06:24:05.329Z,137.80
2023-05-06T06:25:05.286Z,141.90
2023-05-06T06:26:05.264Z,140.40
2023-05-06T06:27:05.290Z,130.50
2023-05-06T06:28:05.236Z,141.00
2023-05-06T06:29:05.229Z,137.20
2023-05-06T06:30:05.236Z,130.10
2023-05-06T06:31:05.229Z,123.30
2023-05-06T06:32:05.235Z,131.10
2023-05-06T06:33:05.183Z,117.50
2023-05-06T06:34:05.219Z,116.80
2023-05-06T06:35:05.141Z,119.50
2023-05-06T06:36:05.115Z,118.20
2023-05-06T06:37:07.447Z,116.40
2023-05-06T06:38:05.119Z,105.30
2023-05-06T06:39:05.110Z,108.80
2023-05-06T06:40:05.060Z,101.40
2023-05-06T06:41:05.060Z,102.20
2023-05-06T06:42:05.041Z,104.60
2023-05-06T06:43:05.341Z,101.40
2023-05-06T06:44:05.007Z,96.30
2023-05-06T06:45:05.022Z,99.80
2023-05-06T06:46:05.021Z,88.50
2023-05-06T06:47:04.990Z,91.90
2023-05-06T06:48:05.018Z,85.00
2023-05-06T06:49:04.946Z,89.60
2023-05-06T06:50:04.968Z,89.70
2023-05-06T06:51:04.928Z,83.80
2023-05-06T06:52:04.910Z,84.50
2023-05-06T06:53:06.377Z,80.60
2023-05-06T06:54:04.883Z,90.10
2023-05-06T06:55:04.884Z,79.60
2023-05-06T06:56:04.884Z,81.80
2023-05-06T06:57:04.857Z,84.00
2023-05-06T06:58:04.837Z,80.80
2023-05-06T06:59:04.816Z,73.90
2023-05-06T07:00:04.814Z,74.00
2023-05-06T07:01:04.819Z,72.80
2023-05-06T07:02:04.795Z,71.20
2023-05-06T07:03:04.781Z,71.90
2023-05-06T07:04:07.035Z,73.40
2023-05-06T07:05:04.759Z,77.90
2023-05-06T07:06:04.775Z,72.80
2023-05-06T07:07:04.734Z,69.40
2023-05-06T07:08:04.672Z,70.20
2023-05-06T07:09:04.687Z,61.80
2023-05-06T07:10:04.662Z,60.20
2023-05-06T07:11:04.717Z,58.70
2023-05-06T07:12:04.664Z,57.40
2023-05-06T07:13:04.638Z,60.80
2023-05-06T07:14:04.602Z,60.90
2023-05-06T07:15:04.625Z,58.30
2023-05-06T07:16:04.603Z,61.60
2023-05-06T07:17:04.582Z,51.10
2023-05-06T07:18:04.598Z,45.10
2023-05-06T07:19:04.544Z,52.40
2023-05-06T07:20:04.553Z,50.10
2023-05-06T07:21:04.517Z,48.00
2023-05-06T07:22:04.493Z,47.40
2023-05-06T07:23:04.482Z,48.60
2023-05-06T07:24:04.466Z,42.90
2023-05-06T07:25:04.468Z,42.80
2023-05-06T07:26:04.443Z,35.60
2023-05-06T07:27:04.429Z,34.20
2023-05-06T07:28:04.420Z,62.10
2023-05-06T07:29:04.405Z,35.60
2023-05-06T07:30:04.524Z,38.20
2023-05-06T07:31:04.429Z,26.90
2023-05-06T07:32:04.375Z,26.10
2023-05-06T07:33:04.372Z,28.10
2023-05-06T07:34:04.334Z,32.50
2023-05-06T07:35:04.341Z,27.80
2023-05-06T07:36:04.310Z,32.00
2023-05-06T07:37:04.299Z,28.10
2023-05-06T07:38:04.270Z,31.00
2023-05-06T07:39:04.314Z,25.60
2023-05-06T07:40:04.248Z,26.70
2023-05-06T07:41:04.242Z,25.60
2023-05-06T07:42:04.224Z,23.90
2023-05-06T07:43:04.234Z,29.20
2023-05-06T07:44:04.243Z,28.00
2023-05-06T07:45:04.209Z,24.70
2023-05-06T07:46:04.231Z,25.00
2023-05-06T07:47:04.331Z,25.90
2023-05-06T07:48:04.193Z,38.90
2023-05-06T07:49:04.177Z,29.10
2023-05-06T07:50:04.142Z,30.70
2023-05-06T07:51:04.100Z,31.10
2023-05-06T07:52:04.121Z,38.70
2023-05-06T07:53:04.152Z,34.80
2023-05-06T07:54:04.081Z,32.10
2023-05-06T07:55:04.047Z,30.70
2023-05-06T07:56:04.029Z,30.10
2023-05-06T07:57:04.019Z,23.70
2023-05-06T07:58:04.061Z,34.70
2023-05-06T07:59:03.985Z,16.10
2023-05-06T08:00:03.977Z,15.70
2023-05-06T08:01:03.958Z,16.80
2023-05-06T08:02:04.026Z,15.40
2023-05-06T08:03:04.105Z,9.60
2023-05-06T08:04:04.034Z,7.50
2023-05-06T08:05:03.918Z,8.20
2023-05-06T08:06:03.948Z,9.80
2023-05-06T08:07:03.888Z,7.20
2023-05-06T08:08:03.892Z,9.40
2023-05-06T08:09:03.859Z,6.30
2023-05-06T08:10:03.843Z,5.90
2023-05-06T08:11:03.852Z,8.50
2023-05-06T08:12:03.851Z,9.10
2023-05-06T08:13:03.873Z,10.00
2023-05-06T08:14:03.799Z,10.10
2023-05-06T08:15:03.779Z,12.60
2023-05-06T08:16:03.843Z,10.40
2023-05-06T08:17:03.779Z,11.60
2023-05-06T08:18:13.679Z,9.90
2023-05-06T08:19:04.711Z,10.40
2023-05-06T08:20:03.723Z,10.80
2023-05-06T08:21:03.734Z,9.80
2023-05-06T08:22:03.691Z,13.80
2023-05-06T08:23:03.667Z,12.20
2023-05-06T08:24:03.655Z,13.20
2023-05-06T08:25:03.642Z,10.50
2023-05-06T08:26:03.665Z,8.70
2023-05-06T08:27:03.612Z,10.10
2023-05-06T08:28:03.610Z,12.80
2023-05-06T08:29:03.586Z,13.10
2023-05-06T08:30:03.650Z,11.60
2023-05-06T08:31:03.566Z,9.80
2023-05-06T08:32:03.625Z,12.10
2023-05-06T08:33:03.594Z,13.90
2023-05-06T08:34:03.520Z,13.00
2023-05-06T08:35:03.532Z,11.40
2023-05-06T08:36:03.501Z,15.20
2023-05-06T08:37:03.477Z,12.20
2023-05-06T08:38:03.464Z,11.40
2023-05-06T08:39:03.434Z,11.00
2023-05-06T08:40:03.481Z,12.40
2023-05-06T08:41:03.445Z,12.90
2023-05-06T08:42:03.411Z,11.70
2023-05-06T08:43:03.404Z,11.60
2023-05-06T08:44:03.420Z,15.20
2023-05-06T08:45:03.360Z,12.30
2023-05-06T08:46:03.383Z,12.10
2023-05-06T08:47:03.343Z,12.60
2023-05-06T08:48:03.398Z,14.60
2023-05-06T08:49:03.344Z,15.00
2023-05-06T08:50:03.309Z,13.10
2023-05-06T08:51:03.297Z,11.40
2023-05-06T08:52:03.281Z,13.00
2023-05-06T08:53:03.325Z,11.30
2023-05-06T08:54:03.263Z,13.30
2023-05-06T08:55:03.284Z,12.00
2023-05-06T08:56:03.223Z,10.50
2023-05-06T08:57:03.210Z,10.50
2023-05-06T08:58:03.213Z,12.10
2023-05-06T08:59:03.189Z,14.80
2023-05-06T09:00:03.315Z,12.50
2023-05-06T09:01:03.203Z,12.60
2023-05-06T09:02:03.222Z,12.10
2023-05-06T09:03:03.197Z,10.90
2023-05-06T09:04:03.115Z,9.90
2023-05-06T09:05:03.104Z,10.50
2023-05-06T09:06:03.085Z,10.90
2023-05-06T09:07:03.096Z,9.50
2023-05-06T09:08:03.072Z,9.50
2023-05-06T09:09:03.044Z,9.20
2023-05-06T09:10:03.037Z,11.60
2023-05-06T09:11:03.027Z,9.20
2023-05-06T09:12:03.047Z,7.80
2023-05-06T09:13:03.090Z,10.80
2023-05-06T09:14:02.994Z,7.40
2023-05-06T09:15:02.973Z,9.80
2023-05-06T09:16:02.971Z,8.20
2023-05-06T09:17:03.032Z,9.80
2023-05-06T09:18:03.007Z,10.00
2023-05-06T09:19:02.931Z,10.10
2023-05-06T09:20:02.919Z,8.90
2023-05-06T09:21:02.875Z,9.60
2023-05-06T09:22:02.929Z,11.40
2023-05-06T09:23:02.877Z,8.30
2023-05-06T09:24:02.853Z,11.90
2023-05-06T09:25:02.824Z,8.60
2023-05-06T09:26:02.844Z,9.80
2023-05-06T09:27:02.807Z,8.60
2023-05-06T09:28:02.802Z,8.00
2023-05-06T09:29:02.775Z,8.60
2023-05-06T09:30:02.789Z,8.40
2023-05-06T09:31:02.828Z,8.70
2023-05-06T09:32:02.732Z,12.10
2023-05-06T09:33:02.757Z,8.80
2023-05-06T09:34:02.701Z,8.40
2023-05-06T09:35:02.716Z,11.80
2023-05-06T09:36:02.717Z,8.10
2023-05-06T09:37:02.667Z,7.70
2023-05-06T09:38:02.821Z,8.70
2023-05-06T09:39:02.637Z,8.70
2023-05-06T09:40:02.682Z,11.60
2023-05-06T09:41:02.644Z,8.40
2023-05-06T09:42:02.599Z,10.30
2023-05-06T09:43:02.686Z,6.20
2023-05-06T09:44:02.593Z,15.40
2023-05-06T09:45:02.629Z,6.00
2023-05-06T09:46:02.607Z,5.40
2023-05-06T09:47:02.515Z,4.70
2023-05-06T09:48:02.569Z,5.20
2023-05-06T09:49:02.540Z,5.10
2023-05-06T09:50:02.512Z,6.10
2023-05-06T09:51:02.477Z,7.00
2023-05-06T09:52:02.477Z,11.80
2023-05-06T09:53:02.457Z,25.40
2023-05-06T09:54:02.440Z,10.30
2023-05-06T09:55:02.440Z,26.00
2023-05-06T09:56:02.406Z,5.80
2023-05-06T09:57:02.381Z,6.60
2023-05-06T09:58:02.396Z,5.70
2023-05-06T09:59:02.383Z,8.20
2023-05-06T10:00:02.347Z,6.90
2023-05-06T10:01:02.320Z,6.40
2023-05-06T10:02:02.423Z,7.30
2023-05-06T10:03:02.404Z,7.40
2023-05-06T10:04:02.448Z,10.00
2023-05-06T10:05:02.477Z,9.00
2023-05-06T10:06:02.298Z,8.00
2023-05-06T10:07:02.245Z,6.80
2023-05-06T10:08:02.274Z,6.90
2023-05-06T10:09:02.228Z,7.50
2023-05-06T10:10:02.236Z,8.40
2023-05-06T10:11:02.211Z,6.70
2023-05-06T10:12:02.211Z,7.70
2023-05-06T10:13:02.234Z,8.20
2023-05-06T10:14:02.178Z,6.70
2023-05-06T10:15:02.368Z,7.00
2023-05-06T10:16:02.198Z,8.70
2023-05-06T10:17:02.157Z,8.70
2023-05-06T10:18:02.164Z,10.30
2023-05-06T10:19:02.125Z,9.10
2023-05-06T10:20:02.085Z,6.80
2023-05-06T10:21:02.076Z,8.80
2023-05-06T10:22:04.452Z,6.60
2023-05-06T10:23:02.036Z,6.10
2023-05-06T10:24:02.053Z,6.50
2023-05-06T10:25:02.007Z,5.80
2023-05-06T10:26:02.018Z,5.90
2023-05-06T10:27:02.022Z,5.20
2023-05-06T10:28:03.350Z,6.90
2023-05-06T10:29:01.953Z,4.10
2023-05-06T10:30:01.946Z,3.80
2023-05-06T10:31:01.948Z,3.60
2023-05-06T10:32:02.012Z,12.40
2023-05-06T10:33:02.005Z,4.70
2023-05-06T10:34:01.891Z,3.50
2023-05-06T10:35:01.882Z,3.10
2023-05-06T10:36:01.879Z,2.90
2023-05-06T10:37:01.854Z,4.70
2023-05-06T10:38:01.830Z,3.70
2023-05-06T10:39:01.817Z,3.40
2023-05-06T10:40:01.828Z,2.30
2023-05-06T10:41:01.842Z,3.40
2023-05-06T10:42:01.790Z,3.20
2023-05-06T10:43:01.753Z,4.80
2023-05-06T10:44:01.750Z,2.70
2023-05-06T10:45:01.767Z,2.30
2023-05-06T10:46:01.795Z,4.40
2023-05-06T10:47:01.716Z,3.30
2023-05-06T10:48:01.745Z,2.50
2023-05-06T10:49:01.675Z,2.40
2023-05-06T10:50:01.770Z,4.40
2023-05-06T10:51:01.659Z,3.00
2023-05-06T10:52:01.635Z,2.80
2023-05-06T10:53:01.623Z,2.40
2023-05-06T10:54:01.663Z,3.70
2023-05-06T10:55:01.625Z,3.00
2023-05-06T10:56:01.601Z,4.00
2023-05-06T10:57:01.561Z,2.90
2023-05-06T10:58:01.563Z,3.60
2023-05-06T10:59:01.563Z,4.30
2023-05-06T11:00:01.553Z,3.30
2023-05-06T11:01:01.553Z,2.40
2023-05-06T11:02:01.541Z,3.00
2023-05-06T11:03:01.698Z,3.50
2023-05-06T11:04:01.502Z,3.20
2023-05-06T11:05:01.453Z,2.80
2023-05-06T11:06:01.524Z,2.70
2023-05-06T11:07:01.434Z,2.10
2023-05-06T11:08:01.450Z,2.90
2023-05-06T11:09:01.441Z,2.70
2023-05-06T11:10:01.414Z,2.90
2023-05-06T11:11:01.399Z,3.00
2023-05-06T11:12:01.378Z,2.90
2023-05-06T11:13:01.415Z,3.20
2023-05-06T11:14:01.360Z,2.90
2023-05-06T11:15:01.349Z,3.10
2023-05-06T11:16:01.330Z,1.60
2023-05-06T11:17:01.450Z,3.30
2023-05-06T11:18:01.392Z,1.70
2023-05-06T11:19:01.292Z,3.40
2023-05-06T11:20:01.300Z,3.50
2023-05-06T11:21:01.280Z,1.80
2023-05-06T11:22:01.295Z,3.30
2023-05-06T11:23:01.241Z,2.00
2023-05-06T11:24:01.218Z,2.00
2023-05-06T11:25:01.204Z,3.00
2023-05-06T11:26:01.191Z,2.60
2023-05-06T11:27:01.207Z,2.50
2023-05-06T11:28:01.166Z,2.70
2023-05-06T11:29:01.155Z,2.80
2023-05-06T11:30:01.140Z,2.10
2023-05-06T11:31:01.144Z,3.20
2023-05-06T11:32:01.142Z,2.60
2023-05-06T11:33:02.206Z,3.80
2023-05-06T11:34:01.096Z,1.90
2023-05-06T11:35:01.067Z,2.40
2023-05-06T11:36:01.075Z,3.60
2023-05-06T11:37:01.064Z,2.30
2023-05-06T11:38:01.063Z,1.80
2023-05-06T11:39:01.991Z,2.30
2023-05-06T11:40:01.013Z,4.30
2023-05-06T11:41:01.009Z,2.70
2023-05-06T11:42:00.985Z,1.90
2023-05-06T11:43:00.962Z,2.20
2023-05-06T11:44:00.959Z,3.20
2023-05-06T11:45:00.936Z,4.90
2023-05-06T11:46:00.987Z,2.60
2023-05-06T11:47:00.911Z,2.80
2023-05-06T11:48:00.989Z,3.00
2023-05-06T11:49:00.887Z,4.10
2023-05-06T11:50:00.885Z,4.10
2023-05-06T11:51:00.880Z,2.10
2023-05-06T11:52:00.845Z,3.00
2023-05-06T11:53:00.828Z,2.40
2023-05-06T11:54:00.826Z,2.70
2023-05-06T11:55:00.817Z,3.00
2023-05-06T11:56:00.817Z,3.80
2023-05-06T11:57:00.775Z,2.90
2023-05-06T11:58:00.785Z,3.90
2023-05-06T11:59:00.744Z,4.30
2023-05-06T12:00:00.752Z,4.20
2023-05-06T12:01:00.712Z,2.60
2023-05-06T12:02:00.718Z,3.40
2023-05-06T12:03:00.793Z,2.70
2023-05-06T12:04:00.803Z,3.70
2023-05-06T12:05:00.762Z,2.60
2023-05-06T12:06:00.653Z,3.30
2023-05-06T12:07:00.644Z,2.70
2023-05-06T12:08:00.644Z,6.00
2023-05-06T12:09:00.638Z,2.50
2023-05-06T12:10:00.688Z,2.60
2023-05-06T12:11:00.593Z,1.80
2023-05-06T12:12:00.595Z,3.50
2023-05-06T12:13:00.649Z,3.70
2023-05-06T12:14:00.563Z,2.40
2023-05-06T12:15:00.543Z,2.80
2023-05-06T12:16:00.608Z,3.70
2023-05-06T12:17:00.510Z,2.40
2023-05-06T12:18:00.574Z,5.70
2023-05-06T12:19:00.507Z,3.10
2023-05-06T12:20:00.479Z,3.50
2023-05-06T12:21:00.464Z,1.80
2023-05-06T12:22:00.451Z,2.80
2023-05-06T12:23:00.444Z,2.50
2023-05-06T12:24:00.500Z,3.30
2023-05-06T12:25:00.406Z,3.90
2023-05-06T12:26:00.383Z,2.30
2023-05-06T12:27:00.377Z,4.00
2023-05-06T12:28:00.386Z,2.70
2023-05-06T12:29:00.401Z,1.50
2023-05-06T12:30:00.332Z,4.90
2023-05-06T12:31:00.331Z,2.80
2023-05-06T12:32:00.415Z,2.70
2023-05-06T12:33:00.391Z,3.20
2023-05-06T12:34:01.272Z,2.10
2023-05-06T12:35:00.281Z,2.30
2023-05-06T12:36:00.262Z,1.80
2023-05-06T12:37:00.264Z,2.90
2023-05-06T12:38:00.262Z,2.90
2023-05-06T12:39:00.234Z,4.20
2023-05-06T12:40:00.226Z,5.30
2023-05-06T12:41:00.211Z,3.20
2023-05-06T12:42:00.202Z,3.30
2023-05-06T12:43:00.172Z,1.70
2023-05-06T12:44:00.167Z,2.60
2023-05-06T12:45:00.212Z,3.40
2023-05-06T12:46:00.215Z,2.60
2023-05-06T12:47:00.180Z,3.40